createdAt,value
2023-05-05T00:01:25.240Z,7.57
2023-05-05T00:03:51.806Z,6.28
2023-05-05T00:06:18.426Z,6.80
2023-05-05T00:08:44.876Z,6.50
2023-05-05T00:11:11.908Z,6.45
2023-05-05T00:13:38.792Z,6.20
2023-05-05T00:16:05.982Z,6.68
2023-05-05T00:18:33.748Z,7.25
2023-05-05T00:21:00.167Z,9.85
2023-05-05T00:23:26.631Z,5.60
2023-05-05T00:25:53.055Z,5.30
2023-05-05T00:28:19.573Z,6.18
2023-05-05T00:30:46.056Z,5.75
2023-05-05T00:33:12.583Z,5.82
2023-05-05T00:35:38.969Z,5.85
2023-05-05T00:38:05.382Z,5.60
2023-05-05T00:40:31.837Z,6.20
2023-05-05T00:42:59.809Z,6.95
2023-05-05T00:45:26.294Z,6.32
2023-05-05T00:47:56.948Z,6.18
2023-05-05T00:50:29.219Z,6.88
2023-05-05T00:53:06.498Z,7.30
2023-05-05T00:55:34.216Z,6.05
2023-05-05T00:58:02.878Z,7.43
2023-05-05T01:00:30.080Z,7.50
2023-05-05T01:02:56.758Z,7.97
2023-05-05T01:05:25.836Z,7.60
2023-05-05T01:08:15.436Z,7.47
2023-05-05T01:10:51.813Z,9.65
2023-05-05T01:13:46.079Z,8.02
2023-05-05T01:16:22.803Z,8.00
2023-05-05T01:19:26.306Z,9.02
2023-05-05T01:22:07.195Z,9.48
2023-05-05T01:24:39.790Z,9.30
2023-05-05T01:27:21.387Z,9.40
2023-05-05T01:30:05.441Z,9.20
2023-05-05T01:32:35.676Z,9.07
2023-05-05T01:35:27.315Z,8.38
2023-05-05T01:38:08.821Z,8.60
2023-05-05T01:40:40.857Z,8.15
2023-05-05T01:43:09.660Z,9.80
2023-05-05T01:45:41.514Z,9.77
2023-05-05T01:48:09.053Z,9.88
2023-05-05T01:50:36.760Z,8.13
2023-05-05T01:53:04.900Z,8.93
2023-05-05T01:55:34.537Z,8.38
2023-05-05T01:58:02.232Z,10.18
2023-05-05T02:00:30.637Z,8.57
2023-05-05T02:02:59.678Z,8.52
2023-05-05T02:05:28.087Z,8.35
2023-05-05T02:07:59.025Z,7.95
2023-05-05T02:10:28.048Z,8.52
2023-05-05T02:12:56.464Z,7.15
2023-05-05T02:15:25.007Z,8.25
2023-05-05T02:17:52.992Z,7.10
2023-05-05T02:20:20.566Z,6.80
2023-05-05T02:22:47.261Z,7.75
2023-05-05T02:25:13.870Z,6.47
2023-05-05T02:27:43.812Z,7.65
2023-05-05T02:30:15.889Z,7.40
2023-05-05T02:32:54.558Z,8.20
2023-05-05T02:35:24.368Z,7.95
2023-05-05T02:37:53.341Z,7.78
2023-05-05T02:40:24.355Z,6.53
2023-05-05T02:42:54.267Z,7.72
2023-05-05T02:45:23.073Z,7.57
2023-05-05T02:47:49.500Z,6.90
2023-05-05T02:50:16.071Z,6.15
2023-05-05T02:52:43.245Z,6.43
2023-05-05T02:55:10.175Z,6.85
2023-05-05T02:57:53.550Z,4.82
2023-05-05T03:00:28.966Z,5.15
2023-05-05T03:03:02.297Z,4.68
2023-05-05T03:05:42.866Z,4.88
2023-05-05T03:08:13.989Z,4.93
2023-05-05T03:10:50.322Z,4.13
2023-05-05T03:13:20.316Z,4.40
2023-05-05T03:15:49.573Z,4.72
2023-05-05T03:18:18.200Z,3.55
2023-05-05T03:20:45.269Z,4.00
2023-05-05T03:23:13.411Z,3.80
2023-05-05T03:25:47.756Z,3.90
2023-05-05T03:28:16.373Z,3.58
2023-05-05T03:30:43.034Z,2.97
2023-05-05T03:33:12.176Z,3.42
2023-05-05T03:35:38.698Z,3.70
2023-05-05T03:38:05.203Z,3.95
2023-05-05T03:40:43.136Z,2.95
2023-05-05T03:43:11.481Z,2.92
2023-05-05T03:45:38.625Z,3.13
2023-05-05T03:48:07.754Z,3.25
2023-05-05T03:50:34.293Z,3.92
2023-05-05T03:53:00.858Z,3.00
2023-05-05T03:55:27.456Z,3.28
2023-05-05T03:57:56.261Z,3.17
2023-05-05T04:00:22.723Z,4.10
2023-05-05T04:02:51.332Z,3.70
2023-05-05T04:05:23.977Z,4.07
2023-05-05T04:07:51.470Z,4.25
2023-05-05T04:10:17.995Z,3.92
2023-05-05T04:12:44.511Z,4.47
2023-05-05T04:15:11.161Z,4.32
2023-05-05T04:17:37.826Z,3.83
2023-05-05T04:20:04.705Z,4.30
2023-05-05T04:22:31.113Z,4.97
2023-05-05T04:24:57.733Z,4.90
2023-05-05T04:27:28.886Z,4.50
2023-05-05T04:29:55.833Z,4.53
2023-05-05T04:32:22.507Z,4.82
2023-05-05T04:34:49.024Z,4.07
2023-05-05T04:37:15.933Z,4.90
2023-05-05T04:39:42.410Z,4.88
2023-05-05T04:42:09.046Z,5.00
2023-05-05T04:44:35.739Z,4.90
2023-05-05T04:47:02.782Z,4.20
2023-05-05T04:49:29.831Z,5.40
2023-05-05T04:51:56.194Z,5.38
2023-05-05T04:54:22.804Z,5.38
2023-05-05T04:56:49.536Z,4.40
2023-05-05T04:59:16.132Z,4.85
2023-05-05T05:01:45.133Z,5.38
2023-05-05T05:04:11.590Z,4.97
2023-05-05T05:06:38.014Z,4.90
2023-05-05T05:09:04.554Z,5.03
2023-05-05T05:11:30.908Z,5.57
2023-05-05T05:13:57.468Z,5.13
2023-05-05T05:16:25.115Z,6.07
2023-05-05T05:18:51.598Z,5.88
2023-05-05T05:21:18.144Z,5.47
2023-05-05T05:23:46.680Z,6.43
2023-05-05T05:26:13.373Z,5.95
2023-05-05T05:28:39.944Z,6.03
2023-05-05T05:31:06.814Z,6.50
2023-05-05T05:33:33.195Z,6.05
2023-05-05T05:35:59.609Z,8.85
2023-05-05T05:38:25.984Z,6.57
2023-05-05T05:40:54.395Z,9.15
2023-05-05T05:43:21.175Z,8.77
2023-05-05T05:45:47.778Z,10.30
2023-05-05T05:48:14.245Z,9.02
2023-05-05T05:50:40.662Z,9.07
2023-05-05T05:53:07.205Z,7.20
2023-05-05T05:55:33.718Z,8.88
2023-05-05T05:58:00.162Z,9.93
2023-05-05T06:00:27.054Z,8.55
2023-05-05T06:02:53.583Z,8.13
2023-05-05T06:05:19.988Z,8.52
2023-05-05T06:07:46.360Z,9.65
2023-05-05T06:10:26.680Z,8.93
2023-05-05T06:12:59.677Z,8.70
2023-05-05T06:15:26.225Z,7.80
2023-05-05T06:17:52.824Z,9.23
2023-05-05T06:20:19.392Z,9.82
2023-05-05T06:22:46.037Z,10.50
2023-05-05T06:25:12.599Z,9.73
2023-05-05T06:27:38.961Z,8.68
2023-05-05T06:30:07.323Z,8.35
2023-05-05T06:32:33.931Z,10.77
2023-05-05T06:35:00.944Z,8.80
2023-05-05T06:37:30.253Z,9.27
2023-05-05T06:39:56.839Z,8.73
2023-05-05T06:42:23.341Z,8.10
2023-05-05T06:44:49.942Z,8.10
2023-05-05T06:47:16.459Z,8.90
2023-05-05T06:49:42.987Z,9.52
2023-05-05T06:52:09.457Z,9.68
2023-05-05T06:54:35.961Z,9.43
2023-05-05T06:57:02.335Z,9.23
2023-05-05T06:59:28.935Z,9.80
2023-05-05T07:01:56.525Z,8.13
2023-05-05T07:04:23.472Z,7.13
2023-05-05T07:06:50.007Z,7.25
2023-05-05T07:09:19.923Z,5.93
2023-05-05T07:11:46.835Z,7.95
2023-05-05T07:14:15.830Z,6.70
2023-05-05T07:16:42.252Z,6.13
2023-05-05T07:19:08.878Z,7.13
2023-05-05T07:21:35.818Z,6.18
2023-05-05T07:24:03.319Z,6.82
2023-05-05T07:26:29.916Z,6.45
2023-05-05T07:28:57.453Z,6.00
2023-05-05T07:31:24.116Z,5.72
2023-05-05T07:33:50.624Z,5.80
2023-05-05T07:36:18.239Z,6.57
2023-05-05T07:38:44.720Z,6.13
2023-05-05T07:41:13.900Z,6.75
2023-05-05T07:43:44.265Z,5.53
2023-05-05T07:46:11.085Z,5.63
2023-05-05T07:48:39.044Z,5.57
2023-05-05T07:51:05.476Z,6.13
2023-05-05T07:53:32.022Z,5.45
2023-05-05T07:55:58.817Z,4.78
2023-05-05T07:58:25.353Z,5.05
2023-05-05T08:00:51.758Z,4.45
2023-05-05T08:03:20.380Z,5.75
2023-05-05T08:05:50.623Z,4.32
2023-05-05T08:08:18.157Z,4.95
2023-05-05T08:10:44.604Z,4.25
2023-05-05T08:13:11.075Z,2.83
2023-05-05T08:15:37.547Z,3.17
2023-05-05T08:18:04.004Z,3.28
2023-05-05T08:20:30.620Z,4.00
2023-05-05T08:22:57.088Z,4.53
2023-05-05T08:25:24.176Z,5.57
2023-05-05T08:27:50.607Z,3.67
2023-05-05T08:30:20.782Z,3.65
2023-05-05T08:32:47.344Z,4.28
2023-05-05T08:35:14.118Z,3.63
2023-05-05T08:37:40.647Z,4.03
2023-05-05T08:40:07.639Z,3.25
2023-05-05T08:42:38.660Z,3.70
2023-05-05T08:45:07.385Z,3.63
2023-05-05T08:47:35.876Z,3.35
2023-05-05T08:50:02.477Z,3.70
2023-05-05T08:52:36.368Z,3.85
2023-05-05T08:55:24.495Z,4.93
2023-05-05T08:57:54.507Z,3.78
2023-05-05T09:00:21.582Z,4.03
2023-05-05T09:02:48.956Z,4.28
2023-05-05T09:05:16.226Z,3.70
2023-05-05T09:07:44.106Z,4.03
2023-05-05T09:10:14.521Z,4.03
2023-05-05T09:12:41.921Z,4.03
2023-05-05T09:15:13.820Z,4.13
2023-05-05T09:17:46.979Z,3.13
2023-05-05T09:20:14.898Z,3.00
2023-05-05T09:22:44.717Z,3.30
2023-05-05T09:25:13.108Z,3.78
2023-05-05T09:27:42.206Z,3.80
2023-05-05T09:30:10.756Z,3.80
2023-05-05T09:32:49.350Z,3.33
2023-05-05T09:35:16.962Z,3.35
2023-05-05T09:37:43.974Z,3.47
2023-05-05T09:40:13.215Z,3.20
2023-05-05T09:42:40.936Z,5.07
2023-05-05T09:45:20.365Z,4.65
2023-05-05T09:47:47.989Z,4.60
2023-05-05T09:50:18.812Z,5.63
2023-05-05T09:52:59.645Z,5.25
2023-05-05T09:55:26.338Z,5.10
2023-05-05T09:57:52.821Z,3.22
2023-05-05T10:00:20.135Z,2.80
2023-05-05T10:02:46.818Z,3.75
2023-05-05T10:05:18.395Z,3.38
2023-05-05T10:10:15.473Z,2.35
2023-05-05T10:12:42.696Z,2.00
2023-05-05T10:15:11.387Z,2.22
2023-05-05T10:18:02.255Z,2.50
2023-05-05T10:20:35.042Z,2.50
2023-05-05T10:23:05.586Z,2.45
2023-05-05T10:25:39.555Z,2.20
2023-05-05T10:28:11.650Z,2.75
2023-05-05T10:30:44.100Z,2.85
2023-05-05T10:33:30.194Z,3.10
2023-05-05T10:36:02.063Z,3.92
2023-05-05T10:38:31.762Z,3.63
2023-05-05T10:41:00.907Z,3.47
2023-05-05T10:43:50.006Z,3.10
2023-05-05T10:46:17.045Z,3.58
2023-05-05T10:48:57.407Z,4.15
2023-05-05T10:51:44.851Z,2.92
2023-05-05T10:54:21.486Z,3.67
2023-05-05T10:56:48.387Z,2.80
2023-05-05T10:59:39.290Z,3.15
2023-05-05T11:02:17.990Z,4.18
2023-05-05T11:04:44.604Z,4.13
2023-05-05T11:07:14.650Z,4.25
2023-05-05T11:10:06.130Z,3.90
2023-05-05T11:12:53.619Z,3.25
2023-05-05T11:15:34.938Z,4.63
2023-05-05T11:18:05.912Z,4.60
2023-05-05T11:20:40.034Z,4.07
2023-05-05T11:23:06.603Z,4.05
2023-05-05T11:25:45.293Z,4.60
2023-05-05T11:28:17.807Z,4.72
2023-05-05T11:30:56.935Z,4.63
2023-05-05T11:33:33.960Z,5.78
2023-05-05T11:36:06.806Z,5.07
2023-05-05T11:38:36.544Z,5.72
2023-05-05T11:41:14.777Z,4.10
2023-05-05T11:43:42.353Z,4.75
2023-05-05T11:46:13.022Z,5.45
2023-05-05T11:48:46.948Z,4.57
2023-05-05T11:51:14.386Z,4.43
2023-05-05T11:53:46.520Z,4.95
2023-05-05T11:56:19.362Z,4.75
2023-05-05T11:58:47.158Z,5.45
2023-05-05T12:01:14.108Z,5.40
2023-05-05T12:03:41.109Z,4.53
2023-05-05T12:06:09.363Z,5.43
2023-05-05T12:08:42.498Z,5.43
2023-05-05T12:11:11.040Z,5.28
2023-05-05T12:13:37.586Z,6.10
2023-05-05T12:16:15.263Z,5.13
2023-05-05T12:18:42.623Z,5.40
2023-05-05T12:21:19.696Z,6.20
2023-05-05T12:23:49.627Z,5.43
2023-05-05T12:26:30.364Z,5.53
2023-05-05T12:29:00.396Z,4.90
2023-05-05T12:31:44.585Z,5.22
2023-05-05T12:34:11.994Z,5.40
2023-05-05T12:36:39.609Z,5.22
2023-05-05T12:39:06.348Z,5.35
2023-05-05T12:41:35.930Z,5.00
2023-05-05T12:44:05.522Z,5.15
2023-05-05T12:46:45.328Z,4.68
2023-05-05T12:49:12.354Z,4.28
2023-05-05T12:51:39.544Z,5.25
2023-05-05T12:54:08.432Z,4.65
2023-05-05T12:56:40.652Z,4.38
2023-05-05T12:59:29.995Z,3.92
2023-05-05T13:01:59.834Z,4.20
2023-05-05T13:04:27.892Z,4.05
2023-05-05T13:07:14.821Z,4.22
2023-05-05T13:09:41.503Z,3.53
2023-05-05T13:12:11.561Z,3.53
2023-05-05T13:14:38.789Z,4.22
2023-05-05T13:17:05.127Z,4.40
2023-05-05T13:19:31.703Z,4.15
2023-05-05T13:21:58.924Z,5.43
2023-05-05T13:24:34.918Z,5.65
2023-05-05T13:27:11.839Z,5.28
2023-05-05T13:29:38.367Z,5.28
2023-05-05T13:32:04.989Z,5.68
2023-05-05T13:34:31.417Z,5.28
2023-05-05T13:36:57.820Z,4.75
2023-05-05T13:39:25.409Z,5.50
2023-05-05T13:41:51.972Z,6.00
2023-05-05T13:44:18.472Z,4.47
2023-05-05T13:46:45.129Z,4.95
2023-05-05T13:49:11.742Z,6.10
2023-05-05T13:51:38.943Z,5.03
2023-05-05T13:54:06.555Z,5.22
2023-05-05T13:56:35.121Z,4.95
2023-05-05T13:59:02.464Z,4.55
2023-05-05T14:01:30.033Z,5.38
2023-05-05T14:03:57.995Z,4.18
2023-05-05T14:06:24.898Z,5.07
2023-05-05T14:08:52.866Z,4.72
2023-05-05T14:11:20.537Z,4.32
2023-05-05T14:13:47.606Z,4.57
2023-05-05T14:16:15.581Z,4.07
2023-05-05T14:18:42.482Z,2.83
2023-05-05T14:21:08.971Z,3.47
2023-05-05T14:23:35.531Z,2.30
2023-05-05T14:26:02.085Z,2.92
2023-05-05T14:28:28.610Z,2.95
2023-05-05T14:30:55.095Z,2.47
2023-05-05T14:33:22.257Z,2.80
2023-05-05T14:35:48.990Z,2.58
2023-05-05T14:38:15.596Z,2.38
2023-05-05T14:40:45.027Z,2.10
2023-05-05T14:43:11.443Z,1.77
2023-05-05T14:45:37.986Z,1.80
2023-05-05T14:48:04.485Z,1.45
2023-05-05T14:50:30.962Z,1.50
2023-05-05T14:52:57.401Z,2.22
2023-05-05T14:55:25.009Z,1.67
2023-05-05T14:57:51.909Z,1.58
2023-05-05T15:00:18.668Z,1.58
2023-05-05T15:02:45.158Z,1.33
2023-05-05T15:05:11.792Z,1.30
2023-05-05T15:07:38.392Z,1.23
2023-05-05T15:10:05.344Z,1.08
2023-05-05T15:12:35.196Z,1.05
2023-05-05T15:15:02.718Z,0.95
2023-05-05T15:17:30.775Z,1.20
2023-05-05T15:19:57.495Z,0.95
2023-05-05T15:22:24.171Z,0.90
2023-05-05T15:24:50.873Z,1.45
2023-05-05T15:27:18.279Z,1.38
2023-05-05T15:29:45.002Z,1.38
2023-05-05T15:32:11.568Z,1.45
2023-05-05T15:34:38.131Z,0.95
2023-05-05T15:37:04.720Z,0.80
2023-05-05T15:39:33.776Z,1.35
2023-05-05T15:42:03.615Z,0.80
2023-05-05T15:44:30.487Z,1.05
2023-05-05T15:46:57.170Z,1.70
2023-05-05T15:49:23.664Z,1.20
2023-05-05T15:51:50.260Z,1.23
2023-05-05T15:54:17.115Z,1.20
2023-05-05T15:56:43.564Z,1.20
2023-05-05T15:59:12.654Z,1.48
2023-05-05T16:01:39.178Z,1.73
2023-05-05T16:04:05.669Z,1.60
2023-05-05T16:06:32.285Z,1.77
2023-05-05T16:08:58.783Z,1.65
2023-05-05T16:11:26.321Z,1.92
2023-05-05T16:13:53.135Z,1.85
2023-05-05T16:16:19.635Z,1.52
2023-05-05T16:18:46.327Z,1.90
2023-05-05T16:21:12.777Z,1.80
2023-05-05T16:23:39.287Z,1.60
2023-05-05T16:26:05.858Z,1.52
2023-05-05T16:28:34.124Z,1.67
2023-05-05T16:31:02.224Z,1.50
2023-05-05T16:33:29.220Z,2.00
2023-05-05T16:35:58.506Z,2.45
2023-05-05T16:38:24.946Z,2.28
2023-05-05T16:40:51.580Z,2.42
2023-05-05T16:43:20.661Z,1.85
2023-05-05T16:45:47.211Z,3.60
2023-05-05T16:48:14.661Z,3.47
2023-05-05T16:50:41.447Z,2.30
2023-05-05T16:53:08.933Z,2.08
2023-05-05T16:55:35.632Z,2.83
2023-05-05T16:58:02.090Z,2.95
2023-05-05T17:00:29.813Z,2.95
2023-05-05T17:02:56.783Z,3.90
2023-05-05T17:05:23.371Z,3.03
2023-05-05T17:07:49.932Z,2.45
2023-05-05T17:10:16.595Z,4.22
2023-05-05T17:12:43.026Z,3.08
2023-05-05T17:15:09.994Z,3.13
2023-05-05T17:17:36.689Z,3.70
2023-05-05T17:20:04.780Z,3.65
2023-05-05T17:22:31.983Z,4.57
2023-05-05T17:24:58.456Z,3.65
2023-05-05T17:27:24.920Z,4.13
2023-05-05T17:29:51.828Z,3.63
2023-05-05T17:32:18.217Z,3.90
2023-05-05T17:34:44.592Z,3.65
2023-05-05T17:37:10.990Z,4.55
2023-05-05T17:39:37.414Z,3.85
2023-05-05T17:42:03.990Z,3.55
2023-05-05T17:44:31.519Z,3.70
2023-05-05T17:46:58.351Z,3.75
2023-05-05T17:49:25.354Z,3.90
2023-05-05T17:51:52.032Z,3.70
2023-05-05T17:54:21.178Z,3.75
2023-05-05T17:56:47.591Z,4.53
2023-05-05T17:59:13.973Z,4.38
2023-05-05T18:01:45.071Z,4.18
2023-05-05T18:04:11.569Z,3.42
2023-05-05T18:06:38.214Z,3.20
2023-05-05T18:09:04.776Z,3.50
2023-05-05T18:11:31.279Z,3.22
2023-05-05T18:13:57.935Z,3.63
2023-05-05T18:16:24.405Z,3.08
2023-05-05T18:18:53.803Z,2.85
2023-05-05T18:21:20.338Z,2.97
2023-05-05T18:23:46.722Z,2.58
2023-05-05T18:26:13.185Z,3.28
2023-05-05T18:28:40.575Z,3.30
2023-05-05T18:31:07.328Z,3.17
2023-05-05T18:33:33.771Z,2.70
2023-05-05T18:36:01.142Z,2.88
2023-05-05T18:38:27.666Z,2.95
2023-05-05T18:40:54.144Z,2.97
2023-05-05T18:43:20.806Z,2.38
2023-05-05T18:45:47.252Z,2.65
2023-05-05T18:48:16.780Z,1.92
2023-05-05T18:50:43.364Z,2.03
2023-05-05T18:53:10.779Z,1.92
2023-05-05T18:55:37.308Z,2.17
2023-05-05T18:58:03.666Z,2.30
2023-05-05T19:00:30.138Z,2.20
2023-05-05T19:02:56.899Z,1.80
2023-05-05T19:05:23.530Z,1.95
2023-05-05T19:07:49.957Z,2.80
2023-05-05T19:10:16.392Z,2.88
2023-05-05T19:12:42.852Z,2.60
2023-05-05T19:15:13.810Z,2.30
2023-05-05T19:17:40.278Z,2.70
2023-05-05T19:20:07.561Z,1.75
2023-05-05T19:22:34.070Z,2.25
2023-05-05T19:25:02.678Z,2.38
2023-05-05T19:27:29.333Z,2.25
2023-05-05T19:29:55.896Z,2.30
2023-05-05T19:32:22.480Z,2.22
2023-05-05T19:34:49.109Z,1.85
2023-05-05T19:37:15.682Z,2.60
2023-05-05T19:39:44.333Z,2.20
2023-05-05T19:42:11.159Z,2.83
2023-05-05T19:44:37.566Z,2.95
2023-05-05T19:47:04.484Z,3.45
2023-05-05T19:49:30.870Z,2.88
2023-05-05T19:51:58.751Z,2.38
2023-05-05T19:54:25.654Z,3.17
2023-05-05T19:56:52.208Z,2.97
2023-05-05T19:59:18.577Z,3.25
2023-05-05T20:01:45.182Z,3.03
2023-05-05T20:04:11.764Z,3.13
2023-05-05T20:06:38.277Z,2.90
2023-05-05T20:09:04.839Z,2.60
2023-05-05T20:11:31.487Z,3.28
2023-05-05T20:14:01.424Z,2.80
2023-05-05T20:16:27.859Z,2.85
2023-05-05T20:18:54.578Z,2.60
2023-05-05T20:21:21.237Z,2.40
2023-05-05T20:23:47.858Z,2.95
2023-05-05T20:26:14.521Z,2.90
2023-05-05T20:28:44.820Z,3.38
2023-05-05T20:31:12.080Z,2.58
2023-05-05T20:33:38.513Z,2.45
2023-05-05T20:36:05.369Z,2.67
2023-05-05T20:38:31.765Z,3.28
2023-05-05T20:40:58.147Z,3.35
2023-05-05T20:43:25.480Z,2.95
2023-05-05T20:45:52.069Z,3.65
2023-05-05T20:48:18.860Z,3.70
2023-05-05T20:50:45.688Z,4.22
2023-05-05T20:53:16.031Z,3.63
2023-05-05T20:55:42.619Z,4.00
2023-05-05T20:58:11.622Z,2.75
2023-05-05T21:00:38.212Z,4.35
2023-05-05T21:03:04.919Z,4.07
2023-05-05T21:05:31.691Z,4.00
2023-05-05T21:08:01.175Z,3.72
2023-05-05T21:10:29.099Z,3.75
2023-05-05T21:12:55.821Z,4.18
2023-05-05T21:15:22.655Z,3.88
2023-05-05T21:17:49.086Z,4.82
2023-05-05T21:20:16.585Z,4.93
2023-05-05T21:22:43.126Z,4.90
2023-05-05T21:25:20.791Z,4.03
2023-05-05T21:27:48.341Z,3.92
2023-05-05T21:30:15.399Z,3.80
2023-05-05T21:32:42.587Z,4.22
2023-05-05T21:35:09.335Z,4.50
2023-05-05T21:37:39.354Z,4.45
2023-05-05T21:40:09.504Z,4.60
2023-05-05T21:42:36.200Z,4.03
2023-05-05T21:45:02.712Z,4.38
2023-05-05T21:47:29.191Z,5.28
2023-05-05T21:49:55.605Z,4.93
2023-05-05T21:52:21.943Z,4.68
2023-05-05T21:54:48.387Z,4.85
2023-05-05T21:57:14.882Z,4.55
2023-05-05T21:59:41.355Z,4.38
2023-05-05T22:02:07.785Z,4.78
2023-05-05T22:04:34.183Z,5.88
2023-05-05T22:07:00.841Z,5.22
2023-05-05T22:09:29.011Z,4.65
2023-05-05T22:11:55.492Z,6.28
2023-05-05T22:14:21.989Z,4.78
2023-05-05T22:16:48.499Z,6.18
2023-05-05T22:19:14.916Z,4.97
2023-05-05T22:21:41.372Z,6.13
2023-05-05T22:24:07.889Z,5.10
2023-05-05T22:26:34.275Z,6.05
2023-05-05T22:29:03.057Z,6.00
2023-05-05T22:31:30.607Z,5.03
2023-05-05T22:33:57.352Z,5.97
2023-05-05T22:36:27.521Z,5.97
2023-05-05T22:38:54.176Z,6.20
2023-05-05T22:41:21.043Z,6.35
2023-05-05T22:43:49.073Z,5.60
2023-05-05T22:46:17.449Z,6.78
2023-05-05T22:48:43.946Z,6.18
2023-05-05T22:51:11.276Z,6.80
2023-05-05T22:53:38.593Z,5.60
2023-05-05T22:56:05.410Z,6.35
2023-05-05T22:58:31.853Z,6.28
2023-05-05T23:00:58.313Z,6.72
2023-05-05T23:03:24.800Z,7.10
2023-05-05T23:05:51.188Z,7.30
2023-05-05T23:08:17.598Z,7.45
2023-05-05T23:10:44.155Z,7.93
2023-05-05T23:13:10.786Z,7.80
2023-05-05T23:15:43.540Z,7.80
2023-05-05T23:18:09.922Z,8.05
2023-05-05T23:20:36.449Z,7.35
2023-05-05T23:23:04.582Z,7.60
2023-05-05T23:25:31.033Z,6.90
2023-05-05T23:27:57.421Z,8.70
2023-05-05T23:30:23.856Z,7.47
2023-05-05T23:32:50.575Z,7.72
2023-05-05T23:35:20.204Z,8.25
2023-05-05T23:37:46.736Z,8.32
2023-05-05T23:40:16.117Z,8.73
2023-05-05T23:42:42.494Z,7.00
2023-05-05T23:45:09.700Z,8.10
2023-05-05T23:47:36.491Z,8.18
2023-05-05T23:50:03.573Z,7.97
2023-05-05T23:52:33.073Z,7.47
2023-05-05T23:54:59.560Z,7.97
2023-05-05T23:57:28.702Z,6.72
